createdAt,value
2023-03-24T00:00:26.880Z,10.82
2023-03-24T00:02:56.479Z,10.86
2023-03-24T00:05:24.810Z,10.82
2023-03-24T00:07:55.411Z,10.80
2023-03-24T00:10:23.628Z,10.79
2023-03-24T00:12:52.241Z,10.80
2023-03-24T00:15:22.106Z,10.82
2023-03-24T00:17:51.154Z,10.85
2023-03-24T00:20:20.499Z,10.85
2023-03-24T00:22:50.900Z,10.81
2023-03-24T00:25:22.008Z,10.95
2023-03-24T00:27:51.324Z,10.87
2023-03-24T00:30:20.422Z,10.91
2023-03-24T00:32:48.621Z,10.97
2023-03-24T00:35:17.850Z,11.02
2023-03-24T00:37:46.205Z,10.98
2023-03-24T00:40:16.617Z,10.97
2023-03-24T00:42:47.773Z,11.04
2023-03-24T00:45:18.230Z,11.07
2023-03-24T00:47:46.425Z,11.05
2023-03-24T00:50:17.319Z,11.09
2023-03-24T00:52:48.266Z,11.15
2023-03-24T00:55:16.772Z,11.04
2023-03-24T00:57:50.419Z,11.09
2023-03-24T01:00:21.023Z,11.13
2023-03-24T01:02:53.612Z,11.18
2023-03-24T01:05:22.027Z,11.14
2023-03-24T01:07:52.112Z,11.18
2023-03-24T01:10:21.752Z,11.10
2023-03-24T01:12:51.284Z,11.14
2023-03-24T01:15:22.019Z,11.08
2023-03-24T01:17:50.393Z,11.09
2023-03-24T01:20:18.723Z,11.13
2023-03-24T01:22:47.325Z,11.13
2023-03-24T01:25:16.761Z,11.11
2023-03-24T01:27:44.853Z,11.14
2023-03-24T01:30:14.874Z,11.14
2023-03-24T01:32:43.974Z,11.17
2023-03-24T01:35:12.502Z,11.12
2023-03-24T01:37:40.581Z,11.12
2023-03-24T01:40:10.149Z,11.13
2023-03-24T01:42:38.650Z,11.15
2023-03-24T01:45:39.710Z,11.16
2023-03-24T01:48:09.473Z,11.18
2023-03-24T01:50:37.586Z,11.13
2023-03-24T01:53:05.746Z,11.15
2023-03-24T01:55:33.904Z,11.18
2023-03-24T01:58:03.280Z,11.29
2023-03-24T02:00:31.373Z,11.35
2023-03-24T02:03:18.426Z,11.40
2023-03-24T02:05:47.721Z,11.49
2023-03-24T02:08:18.672Z,11.37
2023-03-24T02:10:47.081Z,11.39
2023-03-24T02:13:15.932Z,11.27
2023-03-24T02:15:47.150Z,11.37
2023-03-24T02:18:21.216Z,11.34
2023-03-24T02:21:39.788Z,11.33
2023-03-24T02:24:19.551Z,11.29
2023-03-24T02:26:55.475Z,11.28
2023-03-24T02:30:06.649Z,11.29
2023-03-24T02:33:04.522Z,11.30
2023-03-24T02:36:00.150Z,11.28
2023-03-24T02:38:58.361Z,11.26
2023-03-24T02:41:28.054Z,11.24
2023-03-24T02:43:59.221Z,11.31
2023-03-24T02:46:28.796Z,11.29
2023-03-24T02:49:07.187Z,11.29
2023-03-24T02:51:40.110Z,11.31
2023-03-24T02:54:10.568Z,11.35
2023-03-24T02:56:40.473Z,11.27
2023-03-24T02:59:08.952Z,11.32
2023-03-24T03:01:41.322Z,11.35
2023-03-24T03:04:10.650Z,11.35
2023-03-24T03:06:40.725Z,11.38
2023-03-24T03:09:11.054Z,11.37
2023-03-24T03:11:41.288Z,11.50
2023-03-24T03:14:10.635Z,11.54
2023-03-24T03:16:40.796Z,11.66
2023-03-24T03:19:12.239Z,11.49
2023-03-24T03:21:41.605Z,11.51
2023-03-24T03:24:11.220Z,11.43
2023-03-24T03:26:41.778Z,11.50
2023-03-24T03:29:11.222Z,11.55
2023-03-24T03:31:42.016Z,11.53
2023-03-24T03:34:12.295Z,11.60
2023-03-24T03:36:43.091Z,11.51
2023-03-24T03:39:13.880Z,11.62
2023-03-24T03:41:43.628Z,11.65
2023-03-24T03:44:11.922Z,11.63
2023-03-24T03:46:39.972Z,11.66
2023-03-24T03:49:08.065Z,11.62
2023-03-24T03:51:36.112Z,11.61
2023-03-24T03:54:05.589Z,11.68
2023-03-24T03:56:34.738Z,11.67
2023-03-24T03:59:04.414Z,11.65
2023-03-24T04:01:37.311Z,11.71
2023-03-24T04:04:48.506Z,11.70
2023-03-24T04:07:24.201Z,11.67
2023-03-24T04:09:58.501Z,11.65
2023-03-24T04:12:52.225Z,11.68
2023-03-24T04:15:48.386Z,11.79
2023-03-24T04:18:42.997Z,11.69
2023-03-24T04:21:20.043Z,11.73
2023-03-24T04:23:54.283Z,11.74
2023-03-24T04:26:27.630Z,11.86
2023-03-24T04:29:02.411Z,11.75
2023-03-24T04:31:34.316Z,11.72
2023-03-24T04:34:05.258Z,11.77
2023-03-24T04:36:42.690Z,11.63
2023-03-24T04:39:11.621Z,11.69
2023-03-24T04:41:39.812Z,11.72
2023-03-24T04:44:07.776Z,11.63
2023-03-24T04:46:37.866Z,11.63
2023-03-24T04:49:06.369Z,11.70
2023-03-24T04:51:34.468Z,11.70
2023-03-24T04:54:02.755Z,11.70
2023-03-24T04:56:39.829Z,11.73
2023-03-24T04:59:08.298Z,11.71
2023-03-24T05:01:38.267Z,11.71
2023-03-24T05:04:06.332Z,11.63
2023-03-24T05:06:34.423Z,11.56
2023-03-24T05:09:02.640Z,11.59
2023-03-24T05:11:31.156Z,11.61
2023-03-24T05:13:59.022Z,11.66
2023-03-24T05:16:26.994Z,11.52
2023-03-24T05:18:56.611Z,11.50
2023-03-24T05:21:24.526Z,11.34
2023-03-24T05:23:52.455Z,11.39
2023-03-24T05:26:20.522Z,11.47
2023-03-24T05:28:48.573Z,11.40
2023-03-24T05:31:16.813Z,11.53
2023-03-24T05:33:45.086Z,11.35
2023-03-24T05:36:14.926Z,11.34
2023-03-24T05:38:42.948Z,11.45
2023-03-24T05:41:10.822Z,11.45
2023-03-24T05:43:38.770Z,11.40
2023-03-24T05:46:07.112Z,11.35
2023-03-24T05:48:35.056Z,11.29
2023-03-24T05:51:03.339Z,11.21
2023-03-24T05:53:32.767Z,11.30
2023-03-24T05:56:01.003Z,11.15
2023-03-24T05:58:28.894Z,11.25
2023-03-24T06:00:57.140Z,11.30
2023-03-24T06:03:25.302Z,11.10
2023-03-24T06:05:53.320Z,11.16
2023-03-24T06:08:21.306Z,11.23
2023-03-24T06:10:53.508Z,11.23
2023-03-24T06:13:21.706Z,11.12
2023-03-24T06:15:49.758Z,10.80
2023-03-24T06:18:18.084Z,10.78
2023-03-24T06:20:46.070Z,10.73
2023-03-24T06:23:13.971Z,10.59
2023-03-24T06:25:47.856Z,10.57
2023-03-24T06:28:25.825Z,10.64
2023-03-24T06:30:56.643Z,10.65
2023-03-24T06:33:25.946Z,10.64
2023-03-24T06:35:57.506Z,10.47
2023-03-24T06:38:26.400Z,10.45
2023-03-24T06:40:54.350Z,10.55
2023-03-24T06:43:24.829Z,10.40
2023-03-24T06:45:53.718Z,10.44
2023-03-24T06:48:21.734Z,10.27
2023-03-24T06:50:49.692Z,10.28
2023-03-24T06:53:17.822Z,10.42
2023-03-24T06:55:47.462Z,10.30
2023-03-24T06:58:15.792Z,10.40
2023-03-24T07:00:46.665Z,10.02
2023-03-24T07:03:16.674Z,10.13
2023-03-24T07:05:45.689Z,10.19
2023-03-24T07:10:44.988Z,10.04
2023-03-24T07:13:13.021Z,10.10
2023-03-24T07:15:40.940Z,10.15
2023-03-24T07:18:15.987Z,10.18
2023-03-24T07:20:51.568Z,10.30
2023-03-24T07:23:20.888Z,10.28
2023-03-24T07:25:49.521Z,10.09
2023-03-24T07:28:17.851Z,10.22
2023-03-24T07:30:45.893Z,10.22
2023-03-24T07:33:15.561Z,10.14
2023-03-24T07:35:43.705Z,10.07
2023-03-24T07:38:12.435Z,9.90
2023-03-24T07:40:40.314Z,10.04
2023-03-24T07:43:08.888Z,9.99
2023-03-24T07:45:36.854Z,10.02
2023-03-24T07:48:05.326Z,10.08
2023-03-24T07:50:34.807Z,10.13
2023-03-24T07:53:02.774Z,10.17
2023-03-24T07:55:30.802Z,10.18
2023-03-24T07:57:59.194Z,10.24
2023-03-24T08:00:27.401Z,10.27
2023-03-24T08:02:55.793Z,10.34
2023-03-24T08:05:24.917Z,10.48
2023-03-24T08:07:54.883Z,10.25
2023-03-24T08:10:24.181Z,10.30
2023-03-24T08:12:52.569Z,10.27
2023-03-24T08:15:20.679Z,10.29
2023-03-24T08:17:49.191Z,10.49
2023-03-24T08:20:17.963Z,10.56
2023-03-24T08:22:49.671Z,10.41
2023-03-24T08:25:19.989Z,10.41
2023-03-24T08:27:48.176Z,10.66
2023-03-24T08:30:17.383Z,10.73
2023-03-24T08:32:46.401Z,10.72
2023-03-24T08:35:15.254Z,10.99
2023-03-24T08:37:45.085Z,10.88
2023-03-24T08:40:14.536Z,11.12
2023-03-24T08:42:43.933Z,10.93
2023-03-24T08:45:12.284Z,10.87
2023-03-24T08:47:40.286Z,11.28
2023-03-24T08:50:09.740Z,11.40
2023-03-24T08:52:37.967Z,11.59
2023-03-24T08:55:07.704Z,11.68
2023-03-24T08:57:35.654Z,11.49
2023-03-24T09:00:12.188Z,11.45
2023-03-24T09:02:40.549Z,11.18
2023-03-24T09:05:09.509Z,11.28
2023-03-24T09:07:37.781Z,11.34
2023-03-24T09:10:06.768Z,11.42
2023-03-24T09:12:35.359Z,11.55
2023-03-24T09:15:06.317Z,11.64
2023-03-24T09:17:34.362Z,11.77
2023-03-24T09:20:02.596Z,11.93
2023-03-24T09:22:30.560Z,11.85
2023-03-24T09:24:58.423Z,11.95
2023-03-24T09:27:26.671Z,11.93
2023-03-24T09:29:54.973Z,12.26
2023-03-24T09:32:24.325Z,12.20
2023-03-24T09:34:52.440Z,12.11
2023-03-24T09:37:21.019Z,12.29
2023-03-24T09:39:49.399Z,12.34
2023-03-24T09:42:21.412Z,12.11
2023-03-24T09:44:50.659Z,12.27
2023-03-24T09:47:26.068Z,12.18
2023-03-24T09:49:54.354Z,12.14
2023-03-24T09:52:24.375Z,12.19
2023-03-24T09:54:56.260Z,12.21
2023-03-24T09:57:27.366Z,12.42
2023-03-24T09:59:55.574Z,12.25
2023-03-24T10:02:24.928Z,12.40
2023-03-24T10:04:53.198Z,12.84
2023-03-24T10:07:24.241Z,12.93
2023-03-24T10:09:54.865Z,13.06
2023-03-24T10:12:29.858Z,13.03
2023-03-24T10:15:05.163Z,13.24
2023-03-24T10:17:40.118Z,13.21
2023-03-24T10:20:15.839Z,12.95
2023-03-24T10:22:46.325Z,13.00
2023-03-24T10:25:17.473Z,13.26
2023-03-24T10:27:47.715Z,13.11
2023-03-24T10:30:17.860Z,13.04
2023-03-24T10:32:48.199Z,13.02
2023-03-24T10:35:17.389Z,12.80
2023-03-24T10:37:52.224Z,12.87
2023-03-24T10:40:27.489Z,13.40
2023-03-24T10:43:06.968Z,13.67
2023-03-24T10:45:38.286Z,13.65
2023-03-24T10:48:09.515Z,13.62
2023-03-24T10:50:38.842Z,13.80
2023-03-24T10:53:10.088Z,13.47
2023-03-24T10:55:44.163Z,13.76
2023-03-24T10:58:18.713Z,13.64
2023-03-24T11:00:47.380Z,14.09
2023-03-24T11:03:18.043Z,13.82
2023-03-24T11:05:46.283Z,13.57
2023-03-24T11:08:23.069Z,14.04
2023-03-24T11:10:51.582Z,13.98
2023-03-24T11:13:21.212Z,13.77
2023-03-24T11:15:54.800Z,13.49
2023-03-24T11:18:24.159Z,13.42
2023-03-24T11:20:55.281Z,13.64
2023-03-24T11:23:28.591Z,13.47
2023-03-24T11:26:05.817Z,13.84
2023-03-24T11:28:37.908Z,13.80
2023-03-24T11:31:08.013Z,13.10
2023-03-24T11:33:42.979Z,13.22
2023-03-24T11:36:38.178Z,13.26
2023-03-24T11:39:15.651Z,13.24
2023-03-24T11:41:45.740Z,13.28
2023-03-24T11:45:19.407Z,13.58
2023-03-24T11:47:47.933Z,13.68
2023-03-24T11:50:19.998Z,13.36
2023-03-24T11:52:50.272Z,13.68
2023-03-24T11:55:19.471Z,13.81
2023-03-24T11:57:51.591Z,13.94
2023-03-24T12:00:21.897Z,14.26
2023-03-24T12:02:59.814Z,14.40
2023-03-24T12:05:34.485Z,14.11
2023-03-24T12:08:09.418Z,14.20
2023-03-24T12:10:55.702Z,13.99
2023-03-24T12:13:33.055Z,14.18
2023-03-24T12:16:06.289Z,14.08
2023-03-24T12:19:07.659Z,13.99
2023-03-24T12:21:45.324Z,13.98
2023-03-24T12:24:19.731Z,13.90
2023-03-24T12:26:47.834Z,14.03
2023-03-24T12:29:36.713Z,14.04
2023-03-24T12:32:26.039Z,14.00
2023-03-24T12:35:31.508Z,14.04
2023-03-24T12:38:14.966Z,13.89
2023-03-24T12:41:05.950Z,14.28
2023-03-24T12:43:40.353Z,13.98
2023-03-24T12:46:12.680Z,14.17
2023-03-24T12:48:49.013Z,14.47
2023-03-24T12:51:22.747Z,14.60
2023-03-24T12:53:59.778Z,14.50
2023-03-24T12:56:30.261Z,14.45
2023-03-24T12:58:59.885Z,14.31
2023-03-24T13:01:31.804Z,14.68
2023-03-24T13:04:01.279Z,14.84
2023-03-24T13:06:32.427Z,14.73
2023-03-24T13:09:08.131Z,14.63
2023-03-24T13:11:39.933Z,14.99
2023-03-24T13:14:11.182Z,15.11
2023-03-24T13:16:39.249Z,15.10
2023-03-24T13:19:11.580Z,15.05
2023-03-24T13:21:40.076Z,15.10
2023-03-24T13:24:11.599Z,15.09
2023-03-24T13:26:42.757Z,15.11
2023-03-24T13:29:38.499Z,14.91
2023-03-24T13:32:18.478Z,14.72
2023-03-24T13:34:49.116Z,14.57
2023-03-24T13:37:19.656Z,14.68
2023-03-24T13:39:51.516Z,14.51
2023-03-24T13:42:32.687Z,14.54
2023-03-24T13:45:01.988Z,14.85
2023-03-24T13:47:38.038Z,14.81
2023-03-24T13:50:07.121Z,14.70
2023-03-24T13:52:36.793Z,14.69
2023-03-24T13:55:10.910Z,14.46
2023-03-24T13:57:42.000Z,14.67
2023-03-24T14:00:20.537Z,14.54
2023-03-24T14:02:50.236Z,14.90
2023-03-24T14:05:42.948Z,14.39
2023-03-24T14:08:15.284Z,14.39
2023-03-24T14:10:49.841Z,14.15
2023-03-24T14:13:39.456Z,14.05
2023-03-24T14:16:36.468Z,14.08
2023-03-24T14:19:22.137Z,13.87
2023-03-24T14:21:54.926Z,14.13
2023-03-24T14:24:25.032Z,13.98
2023-03-24T14:26:54.523Z,14.12
2023-03-24T14:29:39.527Z,14.14
2023-03-24T14:32:19.299Z,13.98
2023-03-24T14:34:53.074Z,13.82
2023-03-24T14:37:22.143Z,14.15
2023-03-24T14:39:50.370Z,13.97
2023-03-24T14:42:47.541Z,13.96
2023-03-24T14:45:40.750Z,13.67
2023-03-24T14:48:21.287Z,13.61
2023-03-24T14:50:49.705Z,13.52
2023-03-24T14:53:19.726Z,13.38
2023-03-24T14:55:48.312Z,12.88
2023-03-24T14:58:22.273Z,12.97
2023-03-24T15:01:06.372Z,13.12
2023-03-24T15:03:38.519Z,13.07
2023-03-24T15:06:17.090Z,13.04
2023-03-24T15:08:50.636Z,13.18
2023-03-24T15:11:20.145Z,13.09
2023-03-24T15:13:52.058Z,12.99
2023-03-24T15:16:22.858Z,13.12
2023-03-24T15:19:00.636Z,13.06
2023-03-24T15:21:31.656Z,13.20
2023-03-24T15:24:01.305Z,13.25
2023-03-24T15:26:32.498Z,13.39
2023-03-24T15:29:02.839Z,13.51
2023-03-24T15:31:33.716Z,13.39
2023-03-24T15:34:09.293Z,13.51
2023-03-24T15:36:41.215Z,13.34
2023-03-24T15:39:20.036Z,13.45
2023-03-24T15:41:48.031Z,13.35
2023-03-24T15:44:20.799Z,13.59
2023-03-24T15:46:49.034Z,13.49
2023-03-24T15:49:26.426Z,13.61
2023-03-24T15:51:57.890Z,13.50
2023-03-24T15:54:26.337Z,13.48
2023-03-24T15:57:11.110Z,13.38
2023-03-24T15:59:45.020Z,13.24
2023-03-24T16:02:15.108Z,13.21
2023-03-24T16:04:43.148Z,13.28
2023-03-24T16:07:24.134Z,12.92
2023-03-24T16:09:59.689Z,12.86
2023-03-24T16:12:30.709Z,13.01
2023-03-24T16:15:06.315Z,12.90
2023-03-24T16:17:36.255Z,12.75
2023-03-24T16:20:09.281Z,12.51
2023-03-24T16:22:38.374Z,12.54
2023-03-24T16:25:07.204Z,12.35
2023-03-24T16:27:35.077Z,11.37
2023-03-24T16:30:08.268Z,11.07
2023-03-24T16:32:36.479Z,10.80
2023-03-24T16:35:04.650Z,10.62
2023-03-24T16:37:32.808Z,10.78
2023-03-24T16:40:03.388Z,10.47
2023-03-24T16:42:31.703Z,10.49
2023-03-24T16:45:00.157Z,10.41
2023-03-24T16:47:30.374Z,10.22
2023-03-24T16:49:58.458Z,9.93
2023-03-24T16:52:26.680Z,10.07
2023-03-24T16:54:55.022Z,10.04
2023-03-24T16:57:23.187Z,10.08
2023-03-24T16:59:51.249Z,10.04
2023-03-24T17:02:19.296Z,9.76
2023-03-24T17:04:49.666Z,9.79
2023-03-24T17:07:17.902Z,9.95
2023-03-24T17:09:47.652Z,9.71
2023-03-24T17:12:16.080Z,9.78
2023-03-24T17:14:45.405Z,9.70
2023-03-24T17:17:13.716Z,9.91
2023-03-24T17:19:42.956Z,9.86
2023-03-24T17:22:17.593Z,9.60
2023-03-24T17:24:48.219Z,9.88
2023-03-24T17:27:18.727Z,9.82
2023-03-24T17:29:47.460Z,9.88
2023-03-24T17:32:15.364Z,9.77
2023-03-24T17:34:43.412Z,9.79
2023-03-24T17:37:12.956Z,9.78
2023-03-24T17:39:41.248Z,9.82
2023-03-24T17:42:09.118Z,9.79
2023-03-24T17:44:37.470Z,9.64
2023-03-24T17:47:05.990Z,9.56
2023-03-24T17:50:22.062Z,9.61
2023-03-24T17:52:54.896Z,9.49
2023-03-24T17:55:22.931Z,9.33
2023-03-24T17:57:50.844Z,9.42
2023-03-24T18:00:19.793Z,9.15
2023-03-24T18:02:48.067Z,9.29
2023-03-24T18:05:16.290Z,9.18
2023-03-24T18:07:44.560Z,9.13
2023-03-24T18:10:14.687Z,9.05
2023-03-24T18:12:42.674Z,9.13
2023-03-24T18:15:11.469Z,9.09
2023-03-24T18:17:39.541Z,9.02
2023-03-24T18:20:12.169Z,8.98
2023-03-24T18:22:41.081Z,8.95
2023-03-24T18:25:10.541Z,9.06
2023-03-24T18:27:40.322Z,8.98
2023-03-24T18:30:09.767Z,8.93
2023-03-24T18:32:39.159Z,8.79
2023-03-24T18:35:08.092Z,8.85
2023-03-24T18:37:37.169Z,8.85
2023-03-24T18:40:07.238Z,9.02
2023-03-24T18:42:35.557Z,8.89
2023-03-24T18:45:05.349Z,8.89
2023-03-24T18:47:33.330Z,8.94
2023-03-24T18:50:01.947Z,8.98
2023-03-24T18:52:33.075Z,8.99
2023-03-24T18:55:02.510Z,8.95
2023-03-24T18:57:33.923Z,8.99
2023-03-24T19:00:02.098Z,8.96
2023-03-24T19:02:32.148Z,8.88
2023-03-24T19:05:00.256Z,8.98
2023-03-24T19:07:28.241Z,8.86
2023-03-24T19:09:56.553Z,8.96
2023-03-24T19:12:24.575Z,8.88
2023-03-24T19:14:54.169Z,8.87
2023-03-24T19:17:23.651Z,8.89
2023-03-24T19:19:58.005Z,8.91
2023-03-24T19:22:26.958Z,8.84
2023-03-24T19:24:55.707Z,8.93
2023-03-24T19:27:23.740Z,8.95
2023-03-24T19:29:51.773Z,9.00
2023-03-24T19:32:19.776Z,8.97
2023-03-24T19:34:48.114Z,9.05
2023-03-24T19:37:18.054Z,9.05
2023-03-24T19:39:46.062Z,9.05
2023-03-24T19:42:13.984Z,9.04
2023-03-24T19:44:41.948Z,8.99
2023-03-24T19:47:10.205Z,9.05
2023-03-24T19:49:38.662Z,9.01
2023-03-24T19:52:06.738Z,9.10
2023-03-24T19:54:36.716Z,9.07
2023-03-24T19:57:05.634Z,9.13
2023-03-24T19:59:33.671Z,9.19
2023-03-24T20:02:01.883Z,9.05
2023-03-24T20:04:29.992Z,9.00
2023-03-24T20:06:58.576Z,9.22
2023-03-24T20:09:26.493Z,9.12
2023-03-24T20:11:56.568Z,9.17
2023-03-24T20:14:24.508Z,9.18
2023-03-24T20:16:52.762Z,9.19
2023-03-24T20:19:20.675Z,9.15
2023-03-24T20:21:48.607Z,9.18
2023-03-24T20:24:16.855Z,9.14
2023-03-24T20:26:46.023Z,9.17
2023-03-24T20:29:17.109Z,9.32
2023-03-24T20:31:45.593Z,9.36
2023-03-24T20:34:13.562Z,9.38
2023-03-24T20:36:43.254Z,9.35
2023-03-24T20:39:11.464Z,9.34
2023-03-24T20:41:39.655Z,9.30
2023-03-24T20:44:07.571Z,9.33
2023-03-24T20:46:37.124Z,9.29
2023-03-24T20:49:05.513Z,9.29
2023-03-24T20:51:34.001Z,9.27
2023-03-24T20:54:02.053Z,9.37
2023-03-24T20:56:30.411Z,9.26
2023-03-24T20:58:58.373Z,9.26
2023-03-24T21:01:26.387Z,9.23
2023-03-24T21:04:02.123Z,9.19
2023-03-24T21:06:36.931Z,9.21
2023-03-24T21:09:05.235Z,9.13
2023-03-24T21:11:33.583Z,9.19
2023-03-24T21:14:02.670Z,9.19
2023-03-24T21:16:33.859Z,9.10
2023-03-24T21:19:03.832Z,9.19
2023-03-24T21:21:32.302Z,9.12
2023-03-24T21:24:00.562Z,9.11
2023-03-24T21:26:28.958Z,9.17
2023-03-24T21:28:56.901Z,9.00
2023-03-24T21:31:26.453Z,9.05
2023-03-24T21:33:54.928Z,9.04
2023-03-24T21:36:24.557Z,8.97
2023-03-24T21:38:54.157Z,9.04
2023-03-24T21:41:23.053Z,9.04
2023-03-24T21:43:54.347Z,9.09
2023-03-24T21:46:23.860Z,8.97
2023-03-24T21:48:55.681Z,8.91
2023-03-24T21:51:26.072Z,8.84
2023-03-24T21:53:55.899Z,8.72
2023-03-24T21:56:23.873Z,8.81
2023-03-24T21:58:54.044Z,8.74
2023-03-24T22:01:22.019Z,8.69
2023-03-24T22:03:50.975Z,8.68
2023-03-24T22:06:21.829Z,8.73
2023-03-24T22:08:53.337Z,8.66
2023-03-24T22:11:21.388Z,8.60
2023-03-24T22:13:49.370Z,8.68
2023-03-24T22:16:17.668Z,8.63
2023-03-24T22:18:47.231Z,8.55
2023-03-24T22:21:15.431Z,8.63
2023-03-24T22:23:43.664Z,8.65
2023-03-24T22:26:13.885Z,8.74
2023-03-24T22:28:42.260Z,8.71
2023-03-24T22:31:11.665Z,8.69
2023-03-24T22:33:39.749Z,8.70
2023-03-24T22:36:08.749Z,8.81
2023-03-24T22:38:37.048Z,8.85
2023-03-24T22:41:06.434Z,8.82
2023-03-24T22:43:36.436Z,8.73
2023-03-24T22:46:04.884Z,8.72
2023-03-24T22:48:32.949Z,8.84
2023-03-24T22:51:01.146Z,8.90
2023-03-24T22:53:29.088Z,8.91
2023-03-24T22:55:57.278Z,8.73
2023-03-24T22:58:25.320Z,8.76
2023-03-24T23:00:55.891Z,8.81
2023-03-24T23:03:24.141Z,8.74
2023-03-24T23:05:52.459Z,8.83
2023-03-24T23:08:20.588Z,8.78
2023-03-24T23:10:48.795Z,8.61
2023-03-24T23:13:17.913Z,8.63
2023-03-24T23:15:45.839Z,8.52
2023-03-24T23:18:15.273Z,8.60
2023-03-24T23:20:43.521Z,8.55
2023-03-24T23:23:12.009Z,8.50
2023-03-24T23:25:40.684Z,8.50
2023-03-24T23:28:08.906Z,8.48
2023-03-24T23:30:37.196Z,8.57
2023-03-24T23:33:05.244Z,8.37
2023-03-24T23:35:41.800Z,8.39
2023-03-24T23:38:17.056Z,8.34
2023-03-24T23:40:45.354Z,8.32
2023-03-24T23:43:13.307Z,8.30
2023-03-24T23:45:41.400Z,8.33
2023-03-24T23:48:09.692Z,8.33
2023-03-24T23:50:39.025Z,8.37
2023-03-24T23:53:06.954Z,8.31
2023-03-24T23:55:34.868Z,8.18
2023-03-24T23:58:04.278Z,8.33
